createdAt,value
2017-03-22T00:00:24.797Z,0
2017-03-22T00:01:24.477Z,0
2017-03-22T00:02:24.560Z,0
2017-03-22T00:03:24.898Z,0
2017-03-22T00:04:24.924Z,0
2017-03-22T00:05:24.325Z,0
2017-03-22T00:06:24.380Z,0
2017-03-22T00:07:24.693Z,0
2017-03-22T00:08:24.440Z,0
2017-03-22T00:09:25.067Z,0
2017-03-22T00:10:24.826Z,0
2017-03-22T00:11:24.554Z,0
2017-03-22T00:12:24.898Z,0
2017-03-22T00:13:25.249Z,0
2017-03-22T00:14:25.544Z,0
2017-03-22T00:15:24.701Z,0
2017-03-22T00:16:25.001Z,0
2017-03-22T00:17:25.383Z,0
2017-03-22T00:18:25.392Z,0
2017-03-22T00:19:25.731Z,0
2017-03-22T00:20:24.872Z,0
2017-03-22T00:21:25.176Z,0
2017-03-22T00:22:25.245Z,0
2017-03-22T00:23:25.550Z,0
2017-03-22T00:24:25.584Z,0
2017-03-22T00:25:25.041Z,0
2017-03-22T00:26:25.350Z,0
2017-03-22T00:27:25.728Z,0
2017-03-22T00:28:26.026Z,0
2017-03-22T00:29:26.063Z,0
2017-03-22T00:30:25.221Z,0
2017-03-22T00:31:25.529Z,0
2017-03-22T00:32:25.865Z,0
2017-03-22T00:33:25.900Z,0
2017-03-22T00:34:25.660Z,0
2017-03-22T00:35:25.695Z,0
2017-03-22T00:36:25.428Z,0
2017-03-22T00:37:25.730Z,0
2017-03-22T00:38:25.768Z,0
2017-03-22T00:39:26.109Z,0
2017-03-22T00:40:25.837Z,0
2017-03-22T00:41:25.603Z,0
2017-03-22T00:42:25.906Z,0
2017-03-22T00:43:26.282Z,0
2017-03-22T00:44:26.284Z,0
2017-03-22T00:45:25.736Z,0
2017-03-22T00:46:26.050Z,0
2017-03-22T00:47:26.732Z,0
2017-03-22T00:48:26.719Z,0
2017-03-22T00:49:26.152Z,0
2017-03-22T00:50:25.878Z,0
2017-03-22T00:51:26.518Z,0
2017-03-22T00:52:25.950Z,0
2017-03-22T00:53:26.632Z,0
2017-03-22T00:54:26.976Z,0
2017-03-22T00:55:26.657Z,0
2017-03-22T00:56:26.087Z,0
2017-03-22T00:57:26.733Z,0
2017-03-22T00:58:26.806Z,0
2017-03-22T00:59:26.802Z,0
2017-03-22T01:00:26.532Z,0
2017-03-22T01:01:26.604Z,0
2017-03-22T01:02:26.635Z,0
2017-03-22T01:03:26.994Z,0
2017-03-22T01:04:26.974Z,0
2017-03-22T01:05:26.423Z,0
2017-03-22T01:06:27.081Z,0
2017-03-22T01:07:27.117Z,0
2017-03-22T01:08:26.845Z,0
2017-03-22T01:09:27.149Z,0
2017-03-22T01:10:26.915Z,0
2017-03-22T01:11:26.947Z,0
2017-03-22T01:12:27.257Z,0
2017-03-22T01:13:27.641Z,0
2017-03-22T01:14:27.324Z,0
2017-03-22T01:15:26.753Z,0
2017-03-22T01:16:27.121Z,0
2017-03-22T01:17:26.823Z,0
2017-03-22T01:18:27.506Z,0
2017-03-22T01:19:27.224Z,0
2017-03-22T01:20:27.259Z,0
2017-03-22T01:21:26.988Z,0
2017-03-22T01:22:27.330Z,0
2017-03-22T01:23:27.986Z,0
2017-03-22T01:24:27.678Z,0
2017-03-22T01:25:27.134Z,0
2017-03-22T01:26:27.429Z,0
2017-03-22T01:27:27.472Z,0
2017-03-22T01:28:27.506Z,0
2017-03-22T01:29:27.580Z,0
2017-03-22T01:30:27.273Z,0
2017-03-22T01:31:27.335Z,0
2017-03-22T01:32:27.677Z,0
2017-03-22T01:33:27.985Z,0
2017-03-22T01:34:28.074Z,0
2017-03-22T01:35:27.783Z,0
2017-03-22T01:36:28.091Z,0
2017-03-22T01:37:27.515Z,0
2017-03-22T01:38:28.462Z,0
2017-03-22T01:39:27.622Z,0
2017-03-22T01:40:27.958Z,0
2017-03-22T01:41:27.956Z,0
2017-03-22T01:42:28.024Z,0
2017-03-22T01:43:28.335Z,0
2017-03-22T01:44:28.071Z,0
2017-03-22T01:45:28.396Z,0
2017-03-22T01:46:27.827Z,0
2017-03-22T01:47:28.202Z,0
2017-03-22T01:48:28.201Z,0
2017-03-22T01:49:28.581Z,0
2017-03-22T01:50:27.994Z,0
2017-03-22T01:51:28.343Z,0
2017-03-22T01:52:28.676Z,0
2017-03-22T01:53:29.022Z,0
2017-03-22T01:54:28.108Z,0
2017-03-22T01:55:28.170Z,0
2017-03-22T01:56:28.170Z,0
2017-03-22T01:57:28.552Z,0
2017-03-22T01:58:29.199Z,0
2017-03-22T01:59:28.892Z,0
2017-03-22T02:00:28.611Z,0
2017-03-22T02:01:28.377Z,0
2017-03-22T02:02:29.338Z,0
2017-03-22T02:03:29.028Z,0
2017-03-22T02:04:28.839Z,0
2017-03-22T02:05:29.100Z,0
2017-03-22T02:06:28.552Z,0
2017-03-22T02:07:28.887Z,0
2017-03-22T02:08:29.216Z,0
2017-03-22T02:09:29.576Z,0
2017-03-22T02:10:28.998Z,0
2017-03-22T02:11:29.298Z,0
2017-03-22T02:12:29.375Z,0
2017-03-22T02:13:29.061Z,0
2017-03-22T02:14:29.178Z,0
2017-03-22T02:15:29.128Z,0
2017-03-22T02:16:28.903Z,0
2017-03-22T02:17:29.211Z,0
2017-03-22T02:18:29.553Z,0
2017-03-22T02:19:29.618Z,0
2017-03-22T02:20:29.036Z,0
2017-03-22T02:21:29.377Z,0
2017-03-22T02:22:29.383Z,0
2017-03-22T02:23:29.417Z,0
2017-03-22T02:24:30.059Z,0
2017-03-22T02:25:29.515Z,0
2017-03-22T02:26:29.515Z,0
2017-03-22T02:27:29.849Z,0
2017-03-22T02:28:30.196Z,0
2017-03-22T02:29:29.934Z,0
2017-03-22T02:30:29.385Z,0
2017-03-22T02:31:29.392Z,0
2017-03-22T02:32:29.416Z,0
2017-03-22T02:33:30.104Z,0
2017-03-22T02:34:29.520Z,0
2017-03-22T02:35:29.554Z,0
2017-03-22T02:36:29.553Z,0
2017-03-22T02:37:29.894Z,0
2017-03-22T02:38:30.232Z,0
2017-03-22T02:39:29.988Z,0
2017-03-22T02:40:29.739Z,0
2017-03-22T02:41:29.759Z,0
2017-03-22T02:42:29.763Z,0
2017-03-22T02:43:30.103Z,0
2017-03-22T02:44:30.481Z,0
2017-03-22T02:45:29.895Z,0
2017-03-22T02:46:29.908Z,0
2017-03-22T02:47:30.239Z,0
2017-03-22T02:48:30.316Z,0
2017-03-22T02:49:30.363Z,0
2017-03-22T02:50:30.073Z,0
2017-03-22T02:51:30.113Z,0
2017-03-22T02:52:30.112Z,0
2017-03-22T02:53:30.525Z,0
2017-03-22T02:54:30.796Z,0
2017-03-22T02:55:30.523Z,0
2017-03-22T02:56:30.860Z,0
2017-03-22T02:57:30.591Z,0
2017-03-22T02:58:30.325Z,0
2017-03-22T02:59:30.688Z,0
2017-03-22T03:00:30.692Z,0
2017-03-22T03:01:30.455Z,0
2017-03-22T03:02:30.457Z,0
2017-03-22T03:03:30.492Z,0
2017-03-22T03:04:30.832Z,0
2017-03-22T03:05:30.589Z,0
2017-03-22T03:06:30.938Z,0
2017-03-22T03:07:30.624Z,0
2017-03-22T03:08:30.701Z,0
2017-03-22T03:09:30.698Z,0
2017-03-22T03:10:30.726Z,0
2017-03-22T03:11:30.764Z,0
2017-03-22T03:12:30.799Z,0
2017-03-22T03:13:31.486Z,0
2017-03-22T03:14:31.210Z,0
2017-03-22T03:15:31.247Z,0
2017-03-22T03:16:30.936Z,0
2017-03-22T03:17:30.978Z,0
2017-03-22T03:18:31.310Z,0
2017-03-22T03:19:31.692Z,0
2017-03-22T03:20:31.106Z,0
2017-03-22T03:21:31.114Z,0
2017-03-22T03:22:31.146Z,0
2017-03-22T03:23:31.525Z,0
2017-03-22T03:24:31.557Z,0
2017-03-22T03:25:31.559Z,0
2017-03-22T03:26:31.283Z,0
2017-03-22T03:27:31.317Z,0
2017-03-22T03:28:31.703Z,0
2017-03-22T03:29:31.729Z,0
2017-03-22T03:30:31.761Z,0
2017-03-22T03:31:31.453Z,0
2017-03-22T03:32:31.792Z,0
2017-03-22T03:33:31.835Z,0
2017-03-22T03:34:31.904Z,0
2017-03-22T03:35:31.625Z,0
2017-03-22T03:36:31.627Z,0
2017-03-22T03:37:32.229Z,0
2017-03-22T03:38:32.299Z,0
2017-03-22T03:39:32.034Z,0
2017-03-22T03:40:32.365Z,0
2017-03-22T03:41:31.818Z,0
2017-03-22T03:42:31.873Z,0
2017-03-22T03:43:32.173Z,0
2017-03-22T03:44:32.205Z,0
2017-03-22T03:45:31.961Z,0
2017-03-22T03:46:31.965Z,0
2017-03-22T03:47:32.002Z,0
2017-03-22T03:48:32.695Z,0
2017-03-22T03:49:32.414Z,0
2017-03-22T03:50:32.443Z,0
2017-03-22T03:51:32.140Z,0
2017-03-22T03:52:32.513Z,0
2017-03-22T03:53:32.515Z,0
2017-03-22T03:54:32.543Z,0
2017-03-22T03:55:32.615Z,0
2017-03-22T03:56:32.344Z,0
2017-03-22T03:57:32.666Z,0
2017-03-22T03:58:32.682Z,0
2017-03-22T03:59:32.761Z,0
2017-03-22T04:00:32.481Z,0
2017-03-22T04:01:32.811Z,0
2017-03-22T04:02:33.127Z,0
2017-03-22T04:03:33.196Z,0
2017-03-22T04:04:33.188Z,0
2017-03-22T04:05:32.958Z,0
2017-03-22T04:06:32.686Z,0
2017-03-22T04:07:33.027Z,0
2017-03-22T04:08:33.064Z,0
2017-03-22T04:09:33.360Z,0
2017-03-22T04:10:32.845Z,0
2017-03-22T04:11:32.854Z,0
2017-03-22T04:12:32.894Z,0
2017-03-22T04:13:33.566Z,0
2017-03-22T04:14:33.269Z,0
2017-03-22T04:15:33.264Z,0
2017-03-22T04:16:33.022Z,0
2017-03-22T04:17:33.634Z,0
2017-03-22T04:18:33.372Z,0
2017-03-22T04:19:33.752Z,0
2017-03-22T04:20:33.433Z,0
2017-03-22T04:21:33.163Z,0
2017-03-22T04:22:33.509Z,0
2017-03-22T04:23:33.587Z,0
2017-03-22T04:24:33.300Z,0
2017-03-22T04:25:33.334Z,0
2017-03-22T04:26:33.334Z,0
2017-03-22T04:27:33.715Z,0
2017-03-22T04:28:34.045Z,0
2017-03-22T04:29:33.746Z,0
2017-03-22T04:30:33.586Z,0
2017-03-22T04:31:33.506Z,0
2017-03-22T04:32:33.843Z,0
2017-03-22T04:33:34.184Z,0
2017-03-22T04:34:33.642Z,0
2017-03-22T04:35:33.987Z,0
2017-03-22T04:36:33.686Z,0
2017-03-22T04:37:33.742Z,0
2017-03-22T04:38:34.088Z,0
2017-03-22T04:39:33.809Z,4
2017-03-22T04:40:34.150Z,4
2017-03-22T04:41:34.455Z,4
2017-03-22T04:42:33.887Z,4
2017-03-22T04:43:34.556Z,4
2017-03-22T04:44:34.013Z,8
2017-03-22T04:45:34.633Z,8
2017-03-22T04:46:34.045Z,4
2017-03-22T04:47:34.391Z,12
2017-03-22T04:48:34.997Z,12
2017-03-22T04:49:34.728Z,12
2017-03-22T04:50:34.151Z,16
2017-03-22T04:51:34.186Z,20
2017-03-22T04:52:34.258Z,20
2017-03-22T04:53:34.559Z,24
2017-03-22T04:54:34.630Z,24
2017-03-22T04:55:34.322Z,28
2017-03-22T04:56:34.385Z,32
2017-03-22T04:57:34.746Z,40
2017-03-22T04:58:34.427Z,40
2017-03-22T04:59:35.075Z,48
2017-03-22T05:00:34.502Z,48
2017-03-22T05:01:34.865Z,56
2017-03-22T05:02:35.173Z,60
2017-03-22T05:03:35.203Z,60
2017-03-22T05:04:34.972Z,68
2017-03-22T05:05:35.001Z,72
2017-03-22T05:06:35.036Z,76
2017-03-22T05:07:35.053Z,80
2017-03-22T05:08:35.733Z,88
2017-03-22T05:09:35.101Z,96
2017-03-22T05:10:34.868Z,100
2017-03-22T05:11:34.895Z,104
2017-03-22T05:12:34.934Z,112
2017-03-22T05:13:35.845Z,116
2017-03-22T05:14:35.311Z,116
2017-03-22T05:15:35.040Z,116
2017-03-22T05:16:35.067Z,120
2017-03-22T05:17:35.448Z,124
2017-03-22T05:18:35.758Z,128
2017-03-22T05:19:35.139Z,132
2017-03-22T05:20:35.483Z,136
2017-03-22T05:21:35.506Z,144
2017-03-22T05:22:35.589Z,152
2017-03-22T05:23:35.887Z,160
2017-03-22T05:24:35.615Z,164
2017-03-22T05:25:35.375Z,176
2017-03-22T05:26:35.679Z,180
2017-03-22T05:27:35.447Z,188
2017-03-22T05:28:36.098Z,184
2017-03-22T05:29:36.088Z,200
2017-03-22T05:30:35.570Z,248
2017-03-22T05:31:35.896Z,300
2017-03-22T05:32:36.557Z,316
2017-03-22T05:33:35.955Z,332
2017-03-22T05:34:35.700Z,372
2017-03-22T05:35:36.022Z,416
2017-03-22T05:36:36.020Z,440
2017-03-22T05:37:36.356Z,484
2017-03-22T05:38:35.816Z,528
2017-03-22T05:39:36.159Z,560
2017-03-22T05:40:36.187Z,564
2017-03-22T05:41:35.921Z,560
2017-03-22T05:42:36.570Z,544
2017-03-22T05:43:36.265Z,528
2017-03-22T05:44:36.343Z,544
2017-03-22T05:45:36.322Z,580
2017-03-22T05:46:36.365Z,612
2017-03-22T05:47:36.097Z,644
2017-03-22T05:48:36.734Z,680
2017-03-22T05:49:36.157Z,708
2017-03-22T05:50:36.192Z,728
2017-03-22T05:51:36.252Z,736
2017-03-22T05:52:36.260Z,744
2017-03-22T05:53:36.960Z,756
2017-03-22T05:54:36.365Z,772
2017-03-22T05:55:36.373Z,784
2017-03-22T05:56:36.399Z,800
2017-03-22T05:57:36.741Z,820
2017-03-22T05:58:36.814Z,844
2017-03-22T05:59:36.500Z,872
2017-03-22T06:00:36.875Z,904
2017-03-22T06:01:36.875Z,940
2017-03-22T06:02:36.905Z,976
2017-03-22T06:03:36.948Z,1008
2017-03-22T06:04:37.011Z,1048
2017-03-22T06:05:36.709Z,1100
2017-03-22T06:06:37.383Z,1164
2017-03-22T06:07:37.735Z,1212
2017-03-22T06:08:37.112Z,1252
2017-03-22T06:09:36.876Z,1284
2017-03-22T06:10:37.042Z,1316
2017-03-22T06:11:36.906Z,1356
2017-03-22T06:12:37.244Z,1408
2017-03-22T06:13:37.634Z,1472
2017-03-22T06:14:37.320Z,1548
2017-03-22T06:15:37.046Z,1632
2017-03-22T06:16:37.113Z,1732
2017-03-22T06:17:37.148Z,1828
2017-03-22T06:18:37.537Z,1932
2017-03-22T06:19:38.100Z,2036
2017-03-22T06:20:37.215Z,2136
2017-03-22T06:21:37.284Z,2248
2017-03-22T06:22:37.333Z,2344
2017-03-22T06:23:37.968Z,2412
2017-03-22T06:24:37.353Z,2444
2017-03-22T06:25:37.734Z,2452
2017-03-22T06:26:37.460Z,2468
2017-03-22T06:27:37.767Z,2516
2017-03-22T06:28:37.791Z,2604
2017-03-22T06:29:37.834Z,2716
2017-03-22T06:30:37.591Z,2848
2017-03-22T06:31:37.594Z,2964
2017-03-22T06:32:37.633Z,3040
2017-03-22T06:33:38.293Z,3072
2017-03-22T06:34:37.727Z,3036
2017-03-22T06:35:38.066Z,2948
2017-03-22T06:36:38.108Z,2844
2017-03-22T06:37:37.840Z,2756
2017-03-22T06:38:38.440Z,2716
2017-03-22T06:39:38.178Z,2688
2017-03-22T06:40:37.903Z,2660
2017-03-22T06:41:37.939Z,2632
2017-03-22T06:42:38.315Z,2632
2017-03-22T06:43:38.015Z,2636
2017-03-22T06:44:38.073Z,2680
2017-03-22T06:45:38.083Z,2760
2017-03-22T06:46:38.117Z,2856
2017-03-22T06:47:38.157Z,2952
2017-03-22T06:48:38.487Z,3036
2017-03-22T06:49:38.217Z,3112
2017-03-22T06:50:38.245Z,3184
2017-03-22T06:51:38.591Z,3228
2017-03-22T06:52:38.631Z,3216
2017-03-22T06:53:38.968Z,3160
2017-03-22T06:54:38.419Z,3088
2017-03-22T06:55:38.724Z,3012
2017-03-22T06:56:38.486Z,2928
2017-03-22T06:57:38.837Z,2864
2017-03-22T06:58:38.831Z,2872
2017-03-22T06:59:39.258Z,2996
2017-03-22T07:00:38.600Z,3248
2017-03-22T07:01:38.712Z,3588
2017-03-22T07:02:39.273Z,3944
2017-03-22T07:03:39.008Z,4296
2017-03-22T07:04:41.113Z,4628
2017-03-22T07:05:38.797Z,4944
2017-03-22T07:06:38.842Z,5340
2017-03-22T07:07:39.176Z,5828
2017-03-22T07:08:39.525Z,6304
2017-03-22T07:09:38.905Z,6564
2017-03-22T07:10:38.939Z,6680
2017-03-22T07:11:38.973Z,6728
2017-03-22T07:12:39.359Z,6708
2017-03-22T07:13:39.352Z,6612
2017-03-22T07:14:39.163Z,6592
2017-03-22T07:15:39.119Z,6676
2017-03-22T07:16:39.189Z,6856
2017-03-22T07:17:39.842Z,6960
2017-03-22T07:18:39.568Z,7136
2017-03-22T07:19:39.610Z,7244
2017-03-22T07:20:39.301Z,7268
2017-03-22T07:21:39.975Z,7264
2017-03-22T07:22:40.586Z,7272
2017-03-22T07:23:40.039Z,7272
2017-03-22T07:24:39.481Z,7240
2017-03-22T07:25:39.479Z,7300
2017-03-22T07:26:40.218Z,7552
2017-03-22T07:27:39.868Z,7884
2017-03-22T07:28:39.784Z,8152
2017-03-22T07:29:39.924Z,8228
2017-03-22T07:30:39.984Z,8460
2017-03-22T07:31:40.415Z,8976
2017-03-22T07:32:40.815Z,9112
2017-03-22T07:33:40.364Z,9880
2017-03-22T07:34:39.793Z,9272
2017-03-22T07:35:39.827Z,8316
2017-03-22T07:36:40.165Z,7676
2017-03-22T07:37:40.158Z,7272
2017-03-22T07:38:40.581Z,6864
2017-03-22T07:39:40.710Z,7320
2017-03-22T07:40:40.370Z,7428
2017-03-22T07:41:40.692Z,8676
2017-03-22T07:42:40.521Z,9100
2017-03-22T07:43:40.198Z,7968
2017-03-22T07:44:40.494Z,6260
2017-03-22T07:45:40.542Z,5924
2017-03-22T07:46:40.224Z,4932
2017-03-22T07:47:40.590Z,4252
2017-03-22T07:48:40.669Z,4276
2017-03-22T07:49:40.686Z,4300
2017-03-22T07:50:40.672Z,4264
2017-03-22T07:51:40.714Z,4912
2017-03-22T07:52:40.636Z,4756
2017-03-22T07:53:40.935Z,5804
2017-03-22T07:54:40.732Z,7988
2017-03-22T07:55:40.597Z,12052
2017-03-22T07:56:40.920Z,11772
2017-03-22T07:57:41.265Z,7736
2017-03-22T07:58:40.997Z,6924
2017-03-22T07:59:40.992Z,6012
2017-03-22T08:00:40.782Z,4920
2017-03-22T08:01:41.506Z,5660
2017-03-22T08:02:41.757Z,7368
2017-03-22T08:03:41.445Z,8804
2017-03-22T08:04:40.906Z,8048
2017-03-22T08:05:41.303Z,6512
2017-03-22T08:06:41.324Z,6184
2017-03-22T08:07:41.014Z,8916
2017-03-22T08:08:41.665Z,9508
2017-03-22T08:09:41.050Z,11996
2017-03-22T08:10:41.340Z,10596
2017-03-22T08:11:41.469Z,8516
2017-03-22T08:12:41.802Z,9148
2017-03-22T08:13:41.519Z,9188
2017-03-22T08:14:41.274Z,9892
2017-03-22T08:15:41.301Z,10536
2017-03-22T08:16:42.635Z,8508
2017-03-22T08:17:42.741Z,8224
2017-03-22T08:18:41.830Z,11676
2017-03-22T08:19:41.476Z,11680
2017-03-22T08:20:41.821Z,8596
2017-03-22T08:21:42.567Z,7820
2017-03-22T08:22:42.132Z,7004
2017-03-22T08:23:42.262Z,6276
2017-03-22T08:24:42.061Z,5676
2017-03-22T08:25:43.349Z,5704
2017-03-22T08:26:41.983Z,6100
2017-03-22T08:27:42.002Z,6520
2017-03-22T08:28:42.407Z,5736
2017-03-22T08:29:41.820Z,4212
2017-03-22T08:30:41.842Z,3268
2017-03-22T08:31:41.921Z,2952
2017-03-22T08:32:42.221Z,3004
2017-03-22T08:33:41.948Z,4576
2017-03-22T08:34:42.259Z,9000
2017-03-22T08:35:42.003Z,11064
2017-03-22T08:36:42.053Z,13876
2017-03-22T08:37:42.411Z,19776
2017-03-22T08:38:42.130Z,16148
2017-03-22T08:39:42.465Z,11540
2017-03-22T08:40:42.471Z,9492
2017-03-22T08:41:42.250Z,8316
2017-03-22T08:42:42.535Z,12628
2017-03-22T08:43:42.613Z,9700
2017-03-22T08:44:42.342Z,9632
2017-03-22T08:45:42.387Z,7908
2017-03-22T08:46:42.378Z,8884
2017-03-22T08:47:42.447Z,13008
2017-03-22T08:48:42.498Z,19488
2017-03-22T08:49:42.484Z,26624
2017-03-22T08:50:42.568Z,18848
2017-03-22T08:51:42.614Z,18752
2017-03-22T08:52:42.614Z,32000
2017-03-22T08:53:42.685Z,13764
2017-03-22T08:54:43.330Z,12544
2017-03-22T08:55:42.744Z,11416
2017-03-22T08:56:42.784Z,15680
2017-03-22T08:57:42.909Z,8368
2017-03-22T08:58:42.855Z,7112
2017-03-22T08:59:42.896Z,5860
2017-03-22T09:00:42.932Z,7472
2017-03-22T09:01:42.974Z,8256
2017-03-22T09:02:43.310Z,5768
2017-03-22T09:03:43.517Z,3876
2017-03-22T09:04:43.413Z,5056
2017-03-22T09:05:43.084Z,6260
2017-03-22T09:06:43.117Z,6224
2017-03-22T09:07:43.464Z,4632
2017-03-22T09:08:44.642Z,5508
2017-03-22T09:09:43.530Z,7228
2017-03-22T09:10:43.921Z,10296
2017-03-22T09:11:43.303Z,12740
2017-03-22T09:12:43.426Z,12688
2017-03-22T09:13:43.411Z,8796
2017-03-22T09:14:43.877Z,6576
2017-03-22T09:15:43.491Z,6488
2017-03-22T09:16:43.522Z,7992
2017-03-22T09:17:43.527Z,8700
2017-03-22T09:18:43.600Z,8992
2017-03-22T09:19:43.612Z,9000
2017-03-22T09:20:43.651Z,8804
2017-03-22T09:21:43.717Z,7140
2017-03-22T09:22:43.711Z,5964
2017-03-22T09:23:44.407Z,6892
2017-03-22T09:24:43.794Z,12056
2017-03-22T09:25:43.857Z,16832
2017-03-22T09:26:44.154Z,35712
2017-03-22T09:27:43.894Z,57376
2017-03-22T09:28:43.942Z,47296
2017-03-22T09:29:43.979Z,55904
2017-03-22T09:30:44.038Z,44096
2017-03-22T09:31:44.110Z,27392
2017-03-22T09:32:44.427Z,53280
2017-03-22T09:33:44.130Z,37728
2017-03-22T09:34:44.164Z,46432
2017-03-22T09:35:44.239Z,41024
2017-03-22T09:36:44.281Z,29600
2017-03-22T09:37:44.334Z,24608
2017-03-22T09:38:44.657Z,33408
2017-03-22T09:39:44.683Z,44256
2017-03-22T09:40:44.402Z,29536
2017-03-22T09:41:44.498Z,29952
2017-03-22T09:42:44.516Z,36000
2017-03-22T09:43:44.867Z,30016
2017-03-22T09:44:44.881Z,42240
2017-03-22T09:45:44.912Z,19136
2017-03-22T09:46:44.670Z,39840
2017-03-22T09:47:44.990Z,43840
2017-03-22T09:48:45.034Z,27520
2017-03-22T09:49:45.112Z,34880
2017-03-22T09:50:45.138Z,36896
2017-03-22T09:51:44.855Z,33920
2017-03-22T09:52:45.229Z,43328
2017-03-22T09:53:44.975Z,43232
2017-03-22T09:54:44.985Z,41024
2017-03-22T09:55:45.348Z,42624
2017-03-22T09:56:45.406Z,44736
2017-03-22T09:57:45.103Z,42944
2017-03-22T09:58:45.157Z,41536
2017-03-22T09:59:45.539Z,33376
2017-03-22T10:00:45.237Z,32704
2017-03-22T10:01:45.278Z,44000
2017-03-22T10:02:45.337Z,32032
2017-03-22T10:03:45.377Z,44576
2017-03-22T10:04:45.441Z,23200
2017-03-22T10:05:45.487Z,38944
2017-03-22T10:06:45.798Z,40736
2017-03-22T10:07:45.849Z,46496
2017-03-22T10:08:45.594Z,21056
2017-03-22T10:09:45.641Z,32416
2017-03-22T10:10:45.994Z,43840
2017-03-22T10:11:45.722Z,17504
2017-03-22T10:12:46.014Z,21664
2017-03-22T10:13:46.138Z,35360
2017-03-22T10:14:45.871Z,15524
2017-03-22T10:15:45.879Z,32064
2017-03-22T10:16:45.995Z,28928
2017-03-22T10:17:46.319Z,21504
2017-03-22T10:18:46.068Z,22400
2017-03-22T10:19:46.460Z,27232
2017-03-22T10:20:46.432Z,24416
2017-03-22T10:21:46.163Z,27296
2017-03-22T10:22:46.207Z,27552
2017-03-22T10:23:46.513Z,24992
2017-03-22T10:24:46.295Z,22752
2017-03-22T10:25:46.375Z,21280
2017-03-22T10:26:46.691Z,25216
2017-03-22T10:27:46.376Z,27264
2017-03-22T10:28:46.724Z,28896
2017-03-22T10:29:46.798Z,26592
2017-03-22T10:30:46.537Z,29056
2017-03-22T10:31:46.580Z,29312
2017-03-22T10:32:46.581Z,31040
2017-03-22T10:33:46.666Z,27776
2017-03-22T10:34:46.700Z,27328
2017-03-22T10:35:47.115Z,26624
2017-03-22T10:36:47.087Z,25632
2017-03-22T10:37:47.128Z,22880
2017-03-22T10:38:47.172Z,22080
2017-03-22T10:39:47.474Z,19680
2017-03-22T10:40:46.911Z,18976
2017-03-22T10:41:46.955Z,18400
2017-03-22T10:42:47.300Z,18560
2017-03-22T10:43:47.333Z,17504
2017-03-22T10:44:47.386Z,18112
2017-03-22T10:45:47.444Z,19072
2017-03-22T10:46:47.191Z,21216
2017-03-22T10:47:47.512Z,19808
2017-03-22T10:48:47.241Z,21024
2017-03-22T10:49:47.583Z,23136
2017-03-22T10:50:47.625Z,24288
2017-03-22T10:51:48.004Z,26272
2017-03-22T10:52:47.436Z,26592
2017-03-22T10:53:47.475Z,22784
2017-03-22T10:54:48.129Z,21248
2017-03-22T10:55:47.525Z,20064
2017-03-22T10:56:47.598Z,17696
2017-03-22T10:57:47.624Z,16268
2017-03-22T10:58:47.985Z,16640
2017-03-22T10:59:47.685Z,19008
2017-03-22T11:00:47.765Z,19584
2017-03-22T11:01:47.770Z,15864
2017-03-22T11:02:47.842Z,17792
2017-03-22T11:03:48.149Z,16864
2017-03-22T11:04:47.888Z,14620
2017-03-22T11:05:47.924Z,18016
2017-03-22T11:06:48.568Z,23072
2017-03-22T11:07:48.042Z,26496
2017-03-22T11:08:48.350Z,27712
2017-03-22T11:09:48.108Z,29920
2017-03-22T11:10:48.130Z,33088
2017-03-22T11:11:48.164Z,32640
2017-03-22T11:12:48.203Z,30560
2017-03-22T11:13:48.245Z,33440
2017-03-22T11:14:48.587Z,41888
2017-03-22T11:15:48.321Z,47328
2017-03-22T11:16:48.593Z,48480
2017-03-22T11:17:48.401Z,51520
2017-03-22T11:18:48.776Z,30624
2017-03-22T11:19:48.489Z,31296
2017-03-22T11:20:48.562Z,40288
2017-03-22T11:21:49.221Z,54912
2017-03-22T11:22:49.256Z,57184
2017-03-22T11:23:48.654Z,58560
2017-03-22T11:24:48.986Z,58944
2017-03-22T11:25:49.104Z,51808
2017-03-22T11:26:49.074Z,53056
2017-03-22T11:27:48.847Z,39840
2017-03-22T11:28:49.168Z,40608
2017-03-22T11:29:48.907Z,32864
2017-03-22T11:30:49.268Z,23712
2017-03-22T11:31:48.978Z,24416
2017-03-22T11:32:49.017Z,20320
2017-03-22T11:33:49.658Z,18144
2017-03-22T11:34:49.132Z,17920
2017-03-22T11:35:49.137Z,20288
2017-03-22T11:36:49.183Z,24480
2017-03-22T11:37:49.544Z,29152
2017-03-22T11:38:49.340Z,30912
2017-03-22T11:39:49.602Z,26496
2017-03-22T11:40:49.342Z,20576
2017-03-22T11:41:49.381Z,18880
2017-03-22T11:42:49.425Z,19424
2017-03-22T11:43:49.765Z,17088
2017-03-22T11:44:49.502Z,17120
2017-03-22T11:45:49.844Z,17440
2017-03-22T11:46:49.583Z,16704
2017-03-22T11:47:50.224Z,15444
2017-03-22T11:48:49.667Z,14820
2017-03-22T11:49:49.707Z,14548
2017-03-22T11:50:49.865Z,14300
2017-03-22T11:51:49.780Z,13996
2017-03-22T11:52:49.821Z,13800
2017-03-22T11:53:50.511Z,13412
2017-03-22T11:54:50.267Z,13412
2017-03-22T11:55:49.941Z,13500
2017-03-22T11:56:49.987Z,13824
2017-03-22T11:57:50.369Z,13852
2017-03-22T11:58:50.235Z,14008
2017-03-22T11:59:50.133Z,14040
2017-03-22T12:00:50.178Z,14044
2017-03-22T12:01:50.538Z,14284
2017-03-22T12:02:50.238Z,14444
2017-03-22T12:03:50.259Z,14880
2017-03-22T12:04:50.604Z,14928
2017-03-22T12:05:50.378Z,14740
2017-03-22T12:06:50.382Z,14648
2017-03-22T12:07:51.063Z,14372
2017-03-22T12:08:50.761Z,14032
2017-03-22T12:09:50.496Z,13804
2017-03-22T12:10:50.837Z,13612
2017-03-22T12:11:51.184Z,13536
2017-03-22T12:12:50.917Z,13520
2017-03-22T12:13:50.653Z,13460
2017-03-22T12:14:50.700Z,13308
2017-03-22T12:15:50.754Z,12956
2017-03-22T12:16:50.825Z,12424
2017-03-22T12:17:50.810Z,12360
2017-03-22T12:18:50.887Z,12828
2017-03-22T12:19:51.197Z,12580
2017-03-22T12:20:51.023Z,12000
2017-03-22T12:21:50.967Z,11988
2017-03-22T12:22:51.017Z,11692
2017-03-22T12:23:51.086Z,11084
2017-03-22T12:24:51.084Z,10804
2017-03-22T12:25:51.429Z,10596
2017-03-22T12:26:51.164Z,10672
2017-03-22T12:27:51.203Z,10928
2017-03-22T12:28:51.287Z,10688
2017-03-22T12:29:51.311Z,10020
2017-03-22T12:30:51.963Z,9944
2017-03-22T12:31:51.382Z,10828
2017-03-22T12:32:51.397Z,11172
2017-03-22T12:33:51.742Z,11404
2017-03-22T12:34:51.856Z,11248
2017-03-22T12:35:51.552Z,11148
2017-03-22T12:36:51.889Z,11408
2017-03-22T12:37:51.932Z,10948
2017-03-22T12:38:51.893Z,10404
2017-03-22T12:39:52.005Z,10436
2017-03-22T12:40:52.570Z,10840
2017-03-22T12:41:51.779Z,10824
2017-03-22T12:42:51.837Z,11284
2017-03-22T12:43:52.177Z,10528
2017-03-22T12:44:52.200Z,10604
2017-03-22T12:45:51.933Z,10372
2017-03-22T12:46:52.587Z,10144
2017-03-22T12:47:52.012Z,8476
2017-03-22T12:48:52.046Z,8888
2017-03-22T12:49:52.058Z,8220
2017-03-22T12:50:52.134Z,8332
2017-03-22T12:51:52.433Z,8964
2017-03-22T12:52:52.504Z,9156
2017-03-22T12:53:52.515Z,8312
2017-03-22T12:54:52.362Z,7444
2017-03-22T12:55:52.286Z,6980
2017-03-22T12:56:52.323Z,6784
2017-03-22T12:57:52.361Z,6724
2017-03-22T12:58:52.483Z,6948
2017-03-22T12:59:52.776Z,7108
2017-03-22T13:00:52.484Z,6992
2017-03-22T13:01:52.511Z,6752
2017-03-22T13:02:52.855Z,6456
2017-03-22T13:03:52.588Z,6560
2017-03-22T13:04:52.933Z,6676
2017-03-22T13:05:52.705Z,6828
2017-03-22T13:06:52.736Z,7228
2017-03-22T13:07:52.777Z,6708
2017-03-22T13:08:52.773Z,5768
2017-03-22T13:09:52.901Z,5664
2017-03-22T13:10:52.882Z,5584
2017-03-22T13:11:52.933Z,5724
2017-03-22T13:12:52.937Z,5728
2017-03-22T13:13:52.998Z,5764
2017-03-22T13:14:53.006Z,5832
2017-03-22T13:15:53.079Z,5624
2017-03-22T13:16:53.076Z,5316
2017-03-22T13:17:53.457Z,5464
2017-03-22T13:18:53.591Z,5624
2017-03-22T13:19:53.189Z,5824
2017-03-22T13:20:53.834Z,5808
2017-03-22T13:21:53.569Z,5772
2017-03-22T13:22:53.645Z,5644
2017-03-22T13:23:53.678Z,5480
2017-03-22T13:24:53.377Z,5464
2017-03-22T13:25:54.030Z,5628
2017-03-22T13:26:53.452Z,5812
2017-03-22T13:27:54.135Z,5944
2017-03-22T13:28:53.525Z,6248
2017-03-22T13:29:53.577Z,6884
2017-03-22T13:30:53.604Z,6136
2017-03-22T13:31:53.940Z,5156
2017-03-22T13:32:54.034Z,4668
2017-03-22T13:33:53.868Z,4584
2017-03-22T13:34:54.097Z,4696
2017-03-22T13:35:54.119Z,5332
2017-03-22T13:36:53.849Z,5816
2017-03-22T13:37:54.466Z,6272
2017-03-22T13:38:53.934Z,6724
2017-03-22T13:39:54.322Z,6476
2017-03-22T13:40:54.625Z,5976
2017-03-22T13:41:54.362Z,5160
2017-03-22T13:42:54.049Z,4864